Portada
METAR-TAF:

METAR-TAF

Aeropuertos :

Trois-Rivières, Quebec, Canadá

latitud: 46-21-06N, longitud: 72-40-50W, altitud: 61 m

Observación

El informe se hizo hace 19 minutos, a las 03:00 UTC
Viento 5 kt del este-noreste
Temperatura 5°C
Humedad 81%
Presión 1034 hPa
Visibilidad: 14.5 km
Cielo despejado

METAR: CYRQ 250300Z AUTO 06005KT 9SM CLR 05/02 A3053 RMK SLP341

Hora: 23:19 (03:19 UTC)

Pronóstico

El informe se hizo hace 1 hora y 41 minutos, a las 01:38 UTC
Pronóstico válido del 25 a las 02 UTC al 25 a las 14 UTC
Viento 8 kt del este-noreste
Visibilidad: 10 km
Nubes dispersas a una altura de 24000 ft
Evolucionando progresivamente
del 25 a las 06 UTC al 25 a las 08 UTC
Viento 8 kt del sureste

TAF: CYRQ 250138Z 2502/2514 07008KT P6SM SCT240 BECMG 2506/2508 14008KT RMK FCST BASED ON AUTO OBS. NXT FCST BY 250800Z

Observaciones y pronósticos meteorológicos de más de 4000 aeropuertos (mensajes METAR y TAF).

Los puntos amarillos y rojos representan las estaciones disponibles.

Ponga el ratón en el punto deseado para ver el nombre de la estación.

Haga clic para ver las observaciones y los pronósticos meteorológicos.

Para cambiar el mapa : haga clic en los botones verdes con una cruz de color negro para hacer un zoom, en el botón verde con un guión para alejar o en las flechas verdes para mapas adyacentes.


METAR-TAF: